createdAt,value
2018-04-07T00:03:12.891Z,10.65
2018-04-07T00:06:36.304Z,11.02
2018-04-07T00:09:59.670Z,10.60
2018-04-07T00:13:23.038Z,10.79
2018-04-07T00:16:47.160Z,10.54
2018-04-07T00:20:10.448Z,10.36
2018-04-07T00:23:33.726Z,10.25
2018-04-07T00:26:57.078Z,10.18
2018-04-07T00:30:20.369Z,10.16
2018-04-07T00:33:43.666Z,10.39
2018-04-07T00:37:07.014Z,10.18
2018-04-07T00:40:30.364Z,10.01
2018-04-07T00:43:53.766Z,9.87
2018-04-07T00:47:18.304Z,10.01
2018-04-07T00:50:42.418Z,9.97
2018-04-07T00:54:05.716Z,9.95
2018-04-07T00:57:29.059Z,9.79
2018-04-07T01:00:52.390Z,9.75
2018-04-07T01:04:15.674Z,9.86
2018-04-07T01:07:38.994Z,9.83
2018-04-07T01:11:02.331Z,9.73
2018-04-07T01:14:25.609Z,9.82
2018-04-07T01:17:48.969Z,9.78
2018-04-07T01:21:12.270Z,9.94
2018-04-07T01:24:35.612Z,9.49
2018-04-07T01:27:58.895Z,9.67
2018-04-07T01:31:22.984Z,9.82
2018-04-07T01:34:46.276Z,9.41
2018-04-07T01:38:09.562Z,9.37
2018-04-07T01:41:32.902Z,9.27
2018-04-07T01:44:56.207Z,8.93
2018-04-07T01:48:19.540Z,9.26
2018-04-07T01:51:42.834Z,9.26
2018-04-07T01:55:06.127Z,9.13
2018-04-07T01:58:29.392Z,9.01
2018-04-07T02:01:52.703Z,8.98
2018-04-07T02:05:16.050Z,8.83
2018-04-07T02:08:39.477Z,9.33
2018-04-07T02:12:02.757Z,8.79
2018-04-07T02:15:26.086Z,8.97
2018-04-07T02:18:50.128Z,9.12
2018-04-07T02:22:13.434Z,8.89
2018-04-07T02:25:36.764Z,9.51
2018-04-07T02:29:00.094Z,9.22
2018-04-07T02:32:24.220Z,8.76
2018-04-07T02:35:47.597Z,9.55
2018-04-07T02:39:10.943Z,8.96
2018-04-07T02:42:34.283Z,9.14
2018-04-07T02:45:57.574Z,9.29
2018-04-07T02:49:20.944Z,8.96
2018-04-07T02:52:44.287Z,9.05
2018-04-07T02:56:07.660Z,9.44
2018-04-07T02:59:31.016Z,8.83
2018-04-07T03:02:54.350Z,8.61
2018-04-07T03:06:17.632Z,8.60
2018-04-07T03:09:40.968Z,8.26
2018-04-07T03:13:05.065Z,8.21
2018-04-07T03:16:28.348Z,8.40
2018-04-07T03:19:51.645Z,8.23
2018-04-07T03:23:14.936Z,8.29
2018-04-07T03:26:38.320Z,8.08
2018-04-07T03:30:02.371Z,8.36
2018-04-07T03:33:25.728Z,8.03
2018-04-07T03:36:49.162Z,8.36
2018-04-07T03:40:12.470Z,8.93
2018-04-07T03:43:35.803Z,8.86
2018-04-07T03:46:59.234Z,8.45
2018-04-07T03:50:22.658Z,8.30
2018-04-07T03:53:45.944Z,8.50
2018-04-07T03:57:09.225Z,8.20
2018-04-07T04:00:32.582Z,8.56
2018-04-07T04:03:55.902Z,8.43
2018-04-07T04:07:19.974Z,8.22
2018-04-07T04:10:43.332Z,8.49
2018-04-07T04:14:06.672Z,8.60
2018-04-07T04:17:30.022Z,8.18
2018-04-07T04:20:53.320Z,8.11
2018-04-07T04:24:16.654Z,8.37
2018-04-07T04:27:39.953Z,8.36
2018-04-07T04:31:03.296Z,8.00
2018-04-07T04:34:26.569Z,8.29
2018-04-07T04:37:49.864Z,7.79
2018-04-07T04:41:13.190Z,7.43
2018-04-07T04:44:37.230Z,7.38
2018-04-07T04:48:00.523Z,7.25
2018-04-07T04:51:23.834Z,7.22
2018-04-07T04:54:47.182Z,7.18
2018-04-07T04:58:10.494Z,7.35
2018-04-07T05:01:34.786Z,7.17
2018-04-07T05:04:58.846Z,6.97
2018-04-07T05:08:22.201Z,7.03
2018-04-07T05:11:45.468Z,7.09
2018-04-07T05:15:08.740Z,7.11
2018-04-07T05:18:32.042Z,7.15
2018-04-07T05:21:55.334Z,7.44
2018-04-07T05:25:18.686Z,7.31
2018-04-07T05:28:41.974Z,7.27
2018-04-07T05:32:06.292Z,7.57
2018-04-07T05:35:29.637Z,7.58
2018-04-07T05:38:52.927Z,7.56
2018-04-07T05:42:16.270Z,7.49
2018-04-07T05:45:39.573Z,7.56
2018-04-07T05:49:02.916Z,7.69
2018-04-07T05:52:26.272Z,7.63
2018-04-07T05:55:49.577Z,8.11
2018-04-07T05:59:12.939Z,7.94
2018-04-07T06:02:37.064Z,7.77
2018-04-07T06:06:00.360Z,7.78
2018-04-07T06:09:23.697Z,7.77
2018-04-07T06:12:47.799Z,7.99
2018-04-07T06:16:11.064Z,8.02
2018-04-07T06:19:34.376Z,8.17
2018-04-07T06:22:57.742Z,8.21
2018-04-07T06:34:15.672Z,8.37
2018-04-07T06:37:39.715Z,8.66
2018-04-07T06:41:03.025Z,8.90
2018-04-07T06:44:27.067Z,8.85
2018-04-07T06:47:50.363Z,8.86
2018-04-07T06:51:13.662Z,9.08
2018-04-07T06:54:37.020Z,9.09
2018-04-07T06:58:00.368Z,9.19
2018-04-07T07:01:23.753Z,9.24
2018-04-07T07:04:47.879Z,9.41
2018-04-07T07:08:12.186Z,9.55
2018-04-07T07:11:35.546Z,9.65
2018-04-07T07:14:58.908Z,9.59
2018-04-07T07:18:22.329Z,9.75
2018-04-07T07:21:45.625Z,9.93
2018-04-07T07:25:10.283Z,9.83
2018-04-07T07:28:33.628Z,10.32
2018-04-07T07:31:56.951Z,10.21
2018-04-07T07:35:21.140Z,10.44
2018-04-07T07:38:44.498Z,10.67
2018-04-07T07:42:07.876Z,10.81
2018-04-07T07:45:31.225Z,10.88
2018-04-07T07:48:54.573Z,10.87
2018-04-07T07:52:17.939Z,11.00
2018-04-07T07:55:41.331Z,11.00
2018-04-07T07:59:05.486Z,11.00
2018-04-07T08:02:28.849Z,11.11
2018-04-07T08:05:52.173Z,11.36
2018-04-07T08:09:15.526Z,11.59
2018-04-07T08:12:38.999Z,11.85
2018-04-07T08:16:02.418Z,11.80
2018-04-07T08:19:26.532Z,12.08
2018-04-07T08:22:49.811Z,12.37
2018-04-07T08:26:13.348Z,12.55
2018-04-07T08:29:36.618Z,12.85
2018-04-07T08:32:59.989Z,12.84
2018-04-07T08:36:24.127Z,13.14
2018-04-07T08:39:47.680Z,13.03
2018-04-07T08:43:11.105Z,13.03
2018-04-07T08:46:34.474Z,13.39
2018-04-07T08:49:57.374Z,13.64
2018-04-07T08:53:20.988Z,13.66
2018-04-07T08:56:43.867Z,13.54
2018-04-07T09:00:06.782Z,13.49
2018-04-07T09:03:31.570Z,14.02
2018-04-07T09:06:54.503Z,13.99
2018-04-07T09:10:18.133Z,14.11
2018-04-07T09:13:41.337Z,14.30
2018-04-07T09:17:04.249Z,14.30
2018-04-07T09:20:27.190Z,14.77
2018-04-07T09:23:50.105Z,14.86
2018-04-07T09:27:12.956Z,15.28
2018-04-07T09:30:35.806Z,15.11
2018-04-07T09:33:58.623Z,15.32
2018-04-07T09:37:21.550Z,15.69
2018-04-07T09:40:44.741Z,15.79
2018-04-07T09:44:08.369Z,15.83
2018-04-07T09:47:32.322Z,15.93
2018-04-07T09:50:56.005Z,15.91
2018-04-07T09:54:18.857Z,15.92
2018-04-07T09:57:41.741Z,16.32
2018-04-07T10:01:05.681Z,16.32
2018-04-07T10:04:29.334Z,16.70
2018-04-07T10:07:52.206Z,16.69
2018-04-07T10:11:15.070Z,17.14
2018-04-07T10:14:37.939Z,17.44
2018-04-07T10:18:01.549Z,17.62
2018-04-07T10:21:24.430Z,17.72
2018-04-07T10:24:47.406Z,17.63
2018-04-07T10:28:10.465Z,17.75
2018-04-07T10:31:33.450Z,17.90
2018-04-07T10:34:56.315Z,18.53
2018-04-07T10:38:19.224Z,17.98
2018-04-07T10:41:42.142Z,18.72
2018-04-07T10:45:05.019Z,18.78
2018-04-07T10:48:27.894Z,19.09
2018-04-07T10:51:50.834Z,18.91
2018-04-07T10:55:13.810Z,18.71
2018-04-07T10:58:36.792Z,19.26
2018-04-07T11:02:00.412Z,19.30
2018-04-07T11:05:23.461Z,19.06
2018-04-07T11:08:46.328Z,19.59
2018-04-07T11:12:09.235Z,19.57
2018-04-07T11:15:32.098Z,19.82
2018-04-07T11:18:55.007Z,19.76
2018-04-07T11:22:17.954Z,20.13
2018-04-07T11:25:41.692Z,19.76
2018-04-07T11:29:04.600Z,19.82
2018-04-07T11:32:28.222Z,20.37
2018-04-07T11:35:51.199Z,20.10
2018-04-07T11:39:14.060Z,20.33
2018-04-07T11:42:36.918Z,20.69
2018-04-07T11:46:00.557Z,21.17
2018-04-07T11:49:23.733Z,20.91
2018-04-07T11:52:47.394Z,21.18
2018-04-07T11:56:10.274Z,21.02
2018-04-07T11:59:33.187Z,21.54
2018-04-07T12:02:56.831Z,21.30
2018-04-07T12:06:19.695Z,21.64
2018-04-07T12:09:43.353Z,21.58
2018-04-07T12:13:07.002Z,21.70
2018-04-07T12:16:30.811Z,21.48
2018-04-07T12:19:53.672Z,21.63
2018-04-07T12:23:16.533Z,22.04
2018-04-07T12:26:39.357Z,22.13
2018-04-07T12:30:02.242Z,21.52
2018-04-07T12:33:25.176Z,21.78
2018-04-07T12:36:48.821Z,22.28
2018-04-07T12:40:12.438Z,22.47
2018-04-07T12:43:35.329Z,22.23
2018-04-07T12:46:58.967Z,22.63
2018-04-07T12:50:22.609Z,22.41
2018-04-07T12:53:45.576Z,22.20
2018-04-07T12:57:08.432Z,22.72
2018-04-07T13:00:31.274Z,23.10
2018-04-07T13:03:54.134Z,23.38
2018-04-07T13:07:16.961Z,23.12
2018-04-07T13:10:39.816Z,23.54
2018-04-07T13:14:02.804Z,23.90
2018-04-07T13:17:25.767Z,23.87
2018-04-07T13:20:49.386Z,23.43
2018-04-07T13:24:13.071Z,23.34
2018-04-07T13:27:36.699Z,23.08
2018-04-07T13:30:59.593Z,23.73
2018-04-07T13:34:22.463Z,23.45
2018-04-07T13:37:45.359Z,23.79
2018-04-07T13:41:08.231Z,23.83
2018-04-07T13:44:31.069Z,23.78
2018-04-07T13:47:53.917Z,23.81
2018-04-07T13:51:16.788Z,23.98
2018-04-07T13:54:40.409Z,24.06
2018-04-07T13:58:03.232Z,24.48
2018-04-07T14:01:26.111Z,23.94
2018-04-07T14:04:48.940Z,24.17
2018-04-07T14:08:11.896Z,23.74
2018-04-07T14:11:34.851Z,23.88
2018-04-07T14:14:57.695Z,24.23
2018-04-07T14:18:20.538Z,23.99
2018-04-07T14:21:43.423Z,24.01
2018-04-07T14:25:06.255Z,24.55
2018-04-07T14:28:29.101Z,24.17
2018-04-07T14:31:52.020Z,24.19
2018-04-07T14:35:14.872Z,24.40
2018-04-07T14:38:37.716Z,24.39
2018-04-07T14:42:00.579Z,24.23
2018-04-07T14:45:23.430Z,24.43
2018-04-07T14:48:46.266Z,24.56
2018-04-07T14:52:09.101Z,24.61
2018-04-07T14:55:32.049Z,24.66
2018-04-07T14:58:54.887Z,24.35
2018-04-07T15:02:17.741Z,24.71
2018-04-07T15:05:40.607Z,24.69
2018-04-07T15:09:04.211Z,25.02
2018-04-07T15:12:27.149Z,24.79
2018-04-07T15:15:50.098Z,25.35
2018-04-07T15:19:13.732Z,25.39
2018-04-07T15:22:37.374Z,24.91
2018-04-07T15:26:00.283Z,25.49
2018-04-07T15:29:23.134Z,25.19
2018-04-07T15:32:45.986Z,25.35
2018-04-07T15:36:08.913Z,25.62
2018-04-07T15:39:31.825Z,25.26
2018-04-07T15:42:54.665Z,25.67
2018-04-07T15:46:17.513Z,25.45
2018-04-07T15:49:40.386Z,25.61
2018-04-07T15:53:03.296Z,25.37
2018-04-07T15:56:26.129Z,25.35
2018-04-07T15:59:49.082Z,25.24
2018-04-07T16:03:12.714Z,25.16
2018-04-07T16:06:35.688Z,25.64
2018-04-07T16:09:58.608Z,25.37
2018-04-07T16:13:21.571Z,24.99
2018-04-07T16:16:45.198Z,25.28
2018-04-07T16:20:08.097Z,25.41
2018-04-07T16:23:31.167Z,25.02
2018-04-07T16:26:54.029Z,25.27
2018-04-07T16:30:16.865Z,25.16
2018-04-07T16:33:39.709Z,25.26
2018-04-07T16:37:02.565Z,24.93
2018-04-07T16:40:25.551Z,25.29
2018-04-07T16:43:48.378Z,25.29
2018-04-07T16:47:11.390Z,24.92
2018-04-07T16:50:34.243Z,24.96
2018-04-07T16:53:57.133Z,24.72
2018-04-07T16:57:20.762Z,24.85
2018-04-07T17:00:43.725Z,24.60
2018-04-07T17:04:06.621Z,24.29
2018-04-07T17:07:30.238Z,23.85
2018-04-07T17:10:53.091Z,23.62
2018-04-07T17:14:16.142Z,23.60
2018-04-07T17:17:39.025Z,23.58
2018-04-07T17:21:02.655Z,23.52
2018-04-07T17:24:25.549Z,23.40
2018-04-07T17:27:48.461Z,23.08
2018-04-07T17:31:11.338Z,22.80
2018-04-07T17:34:34.201Z,22.92
2018-04-07T17:37:57.919Z,22.66
2018-04-07T17:41:20.876Z,22.05
2018-04-07T17:44:43.787Z,21.72
2018-04-07T17:48:07.386Z,21.24
2018-04-07T17:51:30.242Z,20.77
2018-04-07T17:54:53.120Z,20.45
2018-04-07T17:58:16.751Z,20.19
2018-04-07T18:01:39.745Z,20.01
2018-04-07T18:05:03.363Z,19.82
2018-04-07T18:08:26.380Z,19.59
2018-04-07T18:11:49.841Z,19.27
2018-04-07T18:15:13.489Z,19.13
2018-04-07T18:18:36.393Z,19.08
2018-04-07T18:22:00.151Z,18.89
2018-04-07T18:25:23.049Z,18.76
2018-04-07T18:28:46.735Z,18.73
2018-04-07T18:32:09.725Z,18.64
2018-04-07T18:35:33.132Z,18.47
2018-04-07T18:38:57.003Z,18.43
2018-04-07T18:42:20.535Z,18.71
2018-04-07T18:45:45.031Z,18.43
2018-04-07T18:49:08.667Z,18.21
2018-04-07T18:52:32.149Z,18.00
2018-04-07T18:55:56.642Z,17.92
2018-04-07T18:59:20.015Z,17.95
2018-04-07T19:02:43.355Z,17.74
2018-04-07T19:06:07.475Z,17.68
2018-04-07T19:09:31.601Z,17.89
2018-04-07T19:12:54.956Z,17.60
2018-04-07T19:16:18.309Z,17.53
2018-04-07T19:19:41.666Z,17.74
2018-04-07T19:23:05.029Z,17.35
2018-04-07T19:26:28.377Z,17.72
2018-04-07T19:29:51.882Z,17.50
2018-04-07T19:33:15.223Z,17.35
2018-04-07T19:36:38.520Z,17.27
2018-04-07T19:40:01.983Z,17.15
2018-04-07T19:43:26.184Z,17.20
2018-04-07T19:46:49.639Z,16.84
2018-04-07T19:50:13.766Z,16.84
2018-04-07T19:53:37.116Z,16.85
2018-04-07T19:57:00.588Z,16.50
2018-04-07T20:00:24.754Z,16.56
2018-04-07T20:03:48.868Z,16.36
2018-04-07T20:07:12.297Z,16.49
2018-04-07T20:10:35.574Z,16.15
2018-04-07T20:13:58.859Z,16.06
2018-04-07T20:17:22.217Z,15.93
2018-04-07T20:20:45.499Z,16.14
2018-04-07T20:24:08.815Z,16.10
2018-04-07T20:27:32.157Z,15.81
2018-04-07T20:30:55.492Z,15.78
2018-04-07T20:34:18.798Z,15.74
2018-04-07T20:37:42.202Z,15.89
2018-04-07T20:41:06.311Z,15.63
2018-04-07T20:44:34.797Z,15.38
2018-04-07T20:47:58.926Z,15.41
2018-04-07T20:51:22.261Z,15.35
2018-04-07T20:54:45.590Z,15.32
2018-04-07T20:58:09.631Z,15.19
2018-04-07T21:01:41.779Z,15.05
2018-04-07T21:05:05.068Z,15.04
2018-04-07T21:08:28.368Z,14.97
2018-04-07T21:11:51.712Z,15.01
2018-04-07T21:15:15.012Z,14.95
2018-04-07T21:18:39.152Z,14.84
2018-04-07T21:22:02.521Z,14.59
2018-04-07T21:25:25.872Z,14.64
2018-04-07T21:28:49.227Z,14.72
2018-04-07T21:32:12.951Z,14.56
2018-04-07T21:35:36.368Z,14.44
2018-04-07T21:39:00.468Z,14.36
2018-04-07T21:42:23.827Z,14.52
2018-04-07T21:45:47.172Z,14.43
2018-04-07T21:49:10.522Z,14.40
2018-04-07T21:52:33.795Z,14.27
2018-04-07T21:55:57.097Z,14.23
2018-04-07T21:59:20.503Z,14.11
2018-04-07T22:02:43.818Z,14.07
2018-04-07T22:06:07.188Z,14.17
2018-04-07T22:09:31.259Z,13.98
2018-04-07T22:12:54.652Z,13.86
2018-04-07T22:16:18.104Z,14.06
2018-04-07T22:19:41.405Z,13.89
2018-04-07T22:23:04.786Z,13.78
2018-04-07T22:26:28.830Z,13.71
2018-04-07T22:29:52.124Z,13.59
2018-04-07T22:33:15.487Z,13.60
2018-04-07T22:36:38.838Z,13.51
2018-04-07T22:40:02.316Z,13.58
2018-04-07T22:43:25.763Z,13.47
2018-04-07T22:46:49.044Z,13.30
2018-04-07T22:50:12.333Z,13.27
2018-04-07T22:53:35.730Z,13.13
2018-04-07T22:56:59.871Z,13.24
2018-04-07T23:00:26.052Z,13.16
2018-04-07T23:03:56.428Z,13.14
2018-04-07T23:07:19.732Z,12.97
2018-04-07T23:10:43.089Z,13.05
2018-04-07T23:14:06.376Z,12.96
2018-04-07T23:17:29.676Z,12.87
2018-04-07T23:20:53.086Z,12.78
2018-04-07T23:24:17.389Z,12.88
2018-04-07T23:35:35.524Z,12.73
2018-04-07T23:38:58.915Z,12.79
2018-04-07T23:42:22.363Z,12.74
2018-04-07T23:45:45.662Z,12.66
2018-04-07T23:49:09.021Z,12.54
2018-04-07T23:52:32.389Z,12.64
2018-04-07T23:55:55.759Z,12.70
2018-04-07T23:59:19.803Z,12.54
